Time;durP1;ratioP1;P1;durP2;ratioP2;P2;SDS_P1;SDS_P2;PMS_P1;PMS_P2;Temp;Humidity;BMP_temperature;BMP_pressure;BME280_temperature;BME280_humidity;BME280_pressure;Samples;Min_cycle;Max_cycle;Signal;HPM_P1;HPM_P2
2023/05/11 00:01:19;;;;;;;15.15;11.20;;;16.60;99.90;;;;;;5101405;28;20100;-85
2023/05/11 00:03:45;;;;;;;15.18;10.68;;;16.60;99.90;;;;;;5120272;28;20082;-86
2023/05/11 00:06:10;;;;;;;16.40;11.35;;;16.60;99.90;;;;;;5083945;28;20361;-85
2023/05/11 00:08:36;;;;;;;16.48;10.75;;;16.60;99.90;;;;;;5067023;28;20027;-85
2023/05/11 00:11:05;;;;;;;14.88;10.82;;;16.60;99.90;;;;;;5100476;28;20036;-86
2023/05/11 00:13:31;;;;;;;17.17;12.27;;;16.60;99.90;;;;;;5087429;28;20550;-84
2023/05/11 00:15:57;;;;;;;16.63;12.30;;;16.60;99.90;;;;;;5100271;28;20059;-85
2023/05/11 00:18:22;;;;;;;16.02;11.80;;;16.60;99.90;;;;;;5083065;28;20032;-86
2023/05/11 00:20:48;;;;;;;16.77;12.00;;;16.60;99.90;;;;;;5101472;28;20184;-85
2023/05/11 00:23:14;;;;;;;17.10;11.98;;;16.60;99.90;;;;;;5086807;28;20463;-85
2023/05/11 00:25:40;;;;;;;17.88;11.43;;;16.60;99.90;;;;;;5120562;28;20233;-85
2023/05/11 00:28:06;;;;;;;18.73;12.43;;;16.60;99.90;;;;;;5099261;28;20054;-85
2023/05/11 00:30:32;;;;;;;17.23;11.75;;;16.60;99.90;;;;;;5065530;28;20028;-86
2023/05/11 00:32:58;;;;;;;16.90;12.32;;;16.60;99.90;;;;;;5099243;28;20108;-86
2023/05/11 00:35:23;;;;;;;18.98;14.10;;;16.60;99.90;;;;;;5099606;28;20027;-85
2023/05/11 00:37:49;;;;;;;13.48;10.57;;;16.60;99.90;;;;;;5086990;28;20051;-85
2023/05/11 00:40:15;;;;;;;13.00;9.55;;;16.60;99.90;;;;;;5134398;28;20020;-84
2023/05/11 00:42:40;;;;;;;17.08;11.50;;;16.60;99.90;;;;;;5092853;28;20031;-85
2023/05/11 00:45:06;;;;;;;14.95;10.52;;;16.60;99.90;;;;;;5118099;28;20016;-85
2023/05/11 00:47:32;;;;;;;19.60;11.65;;;16.60;99.90;;;;;;5120173;28;20041;-85
2023/05/11 00:49:58;;;;;;;18.88;12.50;;;16.60;99.90;;;;;;5115387;28;20024;-85
2023/05/11 00:52:24;;;;;;;20.17;14.15;;;16.60;99.90;;;;;;5126810;28;20031;-85
2023/05/11 00:54:50;;;;;;;17.92;12.23;;;16.60;99.90;;;;;;5086836;28;20032;-86
2023/05/11 00:57:16;;;;;;;16.70;12.85;;;16.60;99.90;;;;;;5121020;28;20031;-85
2023/05/11 00:59:42;;;;;;;15.57;11.95;;;16.60;99.90;;;;;;5100772;28;20127;-85
2023/05/11 01:02:08;;;;;;;17.98;12.85;;;16.50;99.90;;;;;;5099191;28;20035;-85
2023/05/11 01:04:34;;;;;;;18.27;13.07;;;16.50;99.90;;;;;;5083670;28;20476;-85
2023/05/11 01:07:11;;;;;;;17.27;13.18;;;16.60;99.90;;;;;;5100762;28;20127;-85
2023/05/11 01:09:43;;;;;;;17.48;12.57;;;16.50;99.90;;;;;;5117384;28;20066;-85
2023/05/11 01:12:33;;;;;;;19.77;13.33;;;16.50;99.90;;;;;;5115663;28;20024;-85
2023/05/11 01:15:02;;;;;;;17.42;12.85;;;16.50;99.90;;;;;;5117963;28;20028;-85
2023/05/11 01:17:56;;;;;;;20.83;15.02;;;16.50;99.90;;;;;;5117012;28;20031;-85
2023/05/11 01:20:26;;;;;;;18.30;13.32;;;16.60;99.90;;;;;;5116237;28;20027;-85
2023/05/11 01:23:06;;;;;;;17.40;13.80;;;16.60;99.90;;;;;;5116176;28;20115;-85
2023/05/11 01:26:00;;;;;;;22.85;16.30;;;16.60;99.90;;;;;;5115383;28;20047;-84
2023/05/11 01:28:57;;;;;;;23.33;15.23;;;16.50;99.90;;;;;;5115320;28;20117;-84
2023/05/11 01:31:25;;;;;;;19.23;14.07;;;16.50;99.90;;;;;;5116561;28;20032;-85
2023/05/11 01:33:57;;;;;;;17.90;12.50;;;16.50;99.90;;;;;;5097942;28;20084;-85
2023/05/11 01:36:32;;;;;;;17.85;12.27;;;16.50;99.90;;;;;;5115071;28;20107;-85
2023/05/11 01:39:02;;;;;;;19.77;14.45;;;16.50;99.90;;;;;;5117592;28;20440;-85
2023/05/11 01:41:30;;;;;;;24.45;16.13;;;16.50;99.90;;;;;;5114996;28;20050;-85
2023/05/11 01:43:59;;;;;;;21.17;14.27;;;16.40;99.90;;;;;;5115859;28;20139;-85
2023/05/11 01:46:29;;;;;;;19.55;14.40;;;16.40;99.90;;;;;;5114927;28;20055;-85
2023/05/11 01:48:56;;;;;;;19.13;14.18;;;16.40;99.90;;;;;;5096546;28;20024;-85
2023/05/11 01:51:25;;;;;;;20.85;14.82;;;16.40;99.90;;;;;;5112853;28;20057;-85
2023/05/11 01:53:52;;;;;;;20.23;14.18;;;16.40;99.90;;;;;;5114362;28;20024;-85
2023/05/11 01:56:21;;;;;;;20.67;14.68;;;16.40;99.90;;;;;;5096179;28;20028;-84
2023/05/11 01:58:48;;;;;;;22.13;15.82;;;16.40;99.90;;;;;;5113027;28;20024;-82
2023/05/11 02:01:16;;;;;;;16.77;12.77;;;16.40;99.90;;;;;;5079364;28;20038;-82
2023/05/11 02:03:42;;;;;;;21.70;15.95;;;16.40;99.90;;;;;;5112830;28;20422;-81
2023/05/11 02:06:12;;;;;;;20.58;14.55;;;16.40;99.90;;;;;;5113894;28;20024;-82
2023/05/11 02:08:40;;;;;;;20.08;14.60;;;16.30;99.90;;;;;;5112939;28;20051;-82
2023/05/11 02:11:07;;;;;;;22.40;14.75;;;16.40;99.90;;;;;;5079065;28;20464;-81
2023/05/11 02:13:34;;;;;;;23.65;16.05;;;16.40;99.90;;;;;;5079085;28;20439;-82
2023/05/11 02:16:01;;;;;;;23.98;15.32;;;16.40;99.90;;;;;;5096025;28;20020;-83
2023/05/11 02:18:28;;;;;;;21.40;14.50;;;16.40;99.90;;;;;;5095515;28;20035;-83
2023/05/11 02:20:55;;;;;;;21.65;14.07;;;16.40;99.90;;;;;;5114483;28;20463;-84
2023/05/11 02:23:23;;;;;;;14.57;10.77;;;16.40;99.90;;;;;;5114213;28;20030;-83
2023/05/11 02:25:51;;;;;;;18.13;13.50;;;16.40;99.90;;;;;;5096006;28;20057;-83
2023/05/11 02:28:18;;;;;;;21.63;14.63;;;16.50;99.90;;;;;;5113702;28;20023;-84
2023/05/11 02:30:49;;;;;;;21.48;14.60;;;16.50;99.90;;;;;;5097637;28;20030;-84
2023/05/11 02:33:26;;;;;;;24.27;16.27;;;16.50;99.90;;;;;;5116732;28;20476;-83
2023/05/11 02:35:55;;;;;;;28.08;17.77;;;16.40;99.90;;;;;;5117965;28;20031;-83
2023/05/11 02:38:28;;;;;;;24.10;16.35;;;16.40;99.90;;;;;;5116907;28;20051;-84
2023/05/11 02:40:58;;;;;;;22.63;15.55;;;16.40;99.90;;;;;;5118501;28;20023;-84
2023/05/11 02:43:28;;;;;;;20.05;14.57;;;16.30;99.90;;;;;;5117463;28;20024;-84
2023/05/11 02:46:01;;;;;;;24.35;16.88;;;16.30;99.90;;;;;;5100175;28;20024;-84
2023/05/11 02:48:29;;;;;;;21.83;14.68;;;16.30;99.90;;;;;;5117640;28;20019;-83
2023/05/11 02:50:57;;;;;;;22.98;16.52;;;16.20;99.90;;;;;;5102785;28;20055;-84
2023/05/11 02:53:26;;;;;;;25.45;17.75;;;16.20;99.90;;;;;;5118179;28;20027;-84
2023/05/11 02:55:53;;;;;;;28.10;18.40;;;16.20;99.90;;;;;;5117782;28;20384;-84
2023/05/11 02:58:19;;;;;;;25.95;17.42;;;16.10;99.90;;;;;;5119105;28;20019;-84
2023/05/11 03:00:46;;;;;;;23.08;15.68;;;16.10;99.90;;;;;;5121681;28;20502;-83
2023/05/11 03:03:12;;;;;;;26.63;18.63;;;16.10;99.90;;;;;;5121364;28;20030;-83
2023/05/11 03:05:37;;;;;;;27.48;18.70;;;16.10;99.90;;;;;;5102259;28;20059;-83
2023/05/11 03:08:04;;;;;;;28.80;19.27;;;16.00;99.90;;;;;;5100651;28;20028;-84
2023/05/11 03:10:30;;;;;;;30.02;20.30;;;15.90;99.90;;;;;;5099785;28;20034;-84
2023/05/11 03:12:56;;;;;;;20.15;14.30;;;15.90;99.90;;;;;;5118995;28;20051;-84
2023/05/11 03:15:22;;;;;;;18.27;12.70;;;15.90;99.90;;;;;;5116834;28;20035;-84
2023/05/11 03:17:49;;;;;;;23.70;16.40;;;15.90;99.90;;;;;;5099175;28;20028;-84
2023/05/11 03:20:16;;;;;;;20.60;14.18;;;16.00;99.90;;;;;;5116488;28;20439;-84
2023/05/11 03:22:43;;;;;;;22.77;16.77;;;16.00;99.90;;;;;;5117312;28;20036;-84
2023/05/11 03:25:10;;;;;;;29.38;19.13;;;16.00;99.90;;;;;;5116666;28;20479;-84
2023/05/11 03:27:37;;;;;;;25.27;16.70;;;16.00;99.90;;;;;;5099180;28;20024;-84
2023/05/11 03:30:06;;;;;;;20.33;14.27;;;16.00;99.90;;;;;;5115823;28;20467;-84
2023/05/11 03:32:32;;;;;;;16.70;11.82;;;16.00;99.90;;;;;;5116504;28;20042;-84
2023/05/11 03:34:58;;;;;;;26.45;18.35;;;16.00;99.90;;;;;;5082205;28;20032;-84
2023/05/11 03:37:24;;;;;;;25.60;16.88;;;16.10;99.90;;;;;;5082160;28;20035;-84
2023/05/11 03:39:54;;;;;;;21.58;15.23;;;16.10;99.90;;;;;;5115885;28;20023;-84
2023/05/11 03:42:21;;;;;;;24.58;16.40;;;16.10;99.90;;;;;;5097647;28;20034;-84
2023/05/11 03:44:49;;;;;;;22.20;13.88;;;16.10;99.90;;;;;;5098517;28;20039;-84
2023/05/11 03:47:17;;;;;;;15.90;11.43;;;16.10;99.90;;;;;;5115291;28;20028;-84
2023/05/11 03:49:43;;;;;;;24.48;16.10;;;16.20;99.90;;;;;;5115815;28;20024;-83
2023/05/11 03:52:09;;;;;;;28.95;18.25;;;16.20;99.90;;;;;;5098850;28;20038;-84
2023/05/11 03:54:35;;;;;;;26.90;18.20;;;16.20;99.90;;;;;;5116857;28;20032;-84
2023/05/11 03:57:01;;;;;;;20.55;14.27;;;16.10;99.90;;;;;;5118002;28;20092;-84
2023/05/11 03:59:26;;;;;;;29.95;18.85;;;16.00;99.90;;;;;;5098379;28;20023;-84
2023/05/11 04:01:52;;;;;;;22.83;16.67;;;15.90;99.90;;;;;;5116756;28;20035;-84
2023/05/11 04:04:29;;;;;;;18.52;13.43;;;15.80;99.90;;;;;;5116634;28;20030;-84
2023/05/11 04:06:55;;;;;;;25.00;16.77;;;15.80;99.90;;;;;;5117542;28;20024;-84
2023/05/11 04:09:21;;;;;;;18.27;13.45;;;15.90;99.90;;;;;;5116893;28;20046;-84
2023/05/11 04:11:47;;;;;;;19.52;14.45;;;15.90;99.90;;;;;;5117152;28;20401;-84
2023/05/11 04:14:12;;;;;;;20.17;14.73;;;16.00;99.90;;;;;;5116059;28;20033;-83
2023/05/11 04:16:38;;;;;;;16.40;11.25;;;16.00;99.90;;;;;;5115906;28;20038;-84
2023/05/11 04:19:05;;;;;;;17.42;12.68;;;16.10;99.90;;;;;;5116188;28;20028;-83
2023/05/11 04:21:31;;;;;;;21.38;15.75;;;16.10;99.90;;;;;;5116092;28;20041;-84
2023/05/11 04:23:57;;;;;;;19.73;14.23;;;16.10;99.90;;;;;;5098631;28;20460;-84
2023/05/11 04:26:23;;;;;;;15.13;11.73;;;16.20;99.90;;;;;;5097835;28;20089;-84
2023/05/11 04:28:48;;;;;;;20.02;14.55;;;16.20;99.90;;;;;;5115339;28;20513;-84
2023/05/11 04:31:14;;;;;;;17.88;12.52;;;16.20;99.90;;;;;;5115887;28;20039;-84
2023/05/11 04:33:40;;;;;;;16.90;12.27;;;16.20;99.90;;;;;;5098014;28;20035;-84
2023/05/11 04:36:06;;;;;;;22.08;15.10;;;16.20;99.90;;;;;;5097511;28;20456;-84
2023/05/11 04:38:32;;;;;;;20.42;15.00;;;16.20;99.90;;;;;;5097522;28;20042;-84
2023/05/11 04:41:05;;;;;;;19.08;14.35;;;16.20;99.90;;;;;;5116265;28;20119;-84
2023/05/11 04:43:31;;;;;;;20.75;14.10;;;16.20;99.90;;;;;;5115556;28;20023;-83
2023/05/11 04:45:58;;;;;;;20.25;13.98;;;16.20;99.90;;;;;;5115740;28;20024;-84
2023/05/11 04:48:25;;;;;;;20.20;14.25;;;16.20;99.90;;;;;;5113874;28;20417;-79
2023/05/11 04:50:52;;;;;;;23.88;16.55;;;16.20;99.90;;;;;;5097102;28;20031;-83
2023/05/11 04:53:17;;;;;;;22.42;16.65;;;16.20;99.90;;;;;;5115512;28;20044;-84
2023/05/11 04:55:43;;;;;;;20.90;16.08;;;16.10;99.90;;;;;;5097580;28;20028;-83
2023/05/11 04:58:09;;;;;;;19.85;15.23;;;16.00;99.90;;;;;;5115370;28;20024;-83
2023/05/11 05:00:35;;;;;;;19.35;14.75;;;15.90;99.90;;;;;;5096993;28;20028;-83
2023/05/11 05:03:01;;;;;;;19.13;14.13;;;15.80;99.90;;;;;;5115260;28;20035;-84
2023/05/11 05:05:27;;;;;;;19.88;14.73;;;15.90;99.90;;;;;;5097642;28;20032;-83
2023/05/11 05:07:53;;;;;;;19.77;15.27;;;15.90;99.90;;;;;;5115573;28;20030;-84
2023/05/11 05:10:19;;;;;;;20.85;14.75;;;16.00;99.90;;;;;;5116403;28;20030;-84
2023/05/11 05:12:45;;;;;;;18.00;13.98;;;15.90;99.90;;;;;;5116154;28;20035;-84
2023/05/11 05:15:11;;;;;;;19.73;13.52;;;16.00;99.90;;;;;;5100105;28;20126;-84
2023/05/11 05:17:36;;;;;;;20.98;14.93;;;16.00;99.90;;;;;;5116915;28;20027;-84
2023/05/11 05:20:03;;;;;;;15.45;12.18;;;16.00;99.90;;;;;;5117317;28;20050;-84
2023/05/11 05:22:29;;;;;;;19.08;13.70;;;16.00;99.90;;;;;;5116600;28;20460;-84
2023/05/11 05:24:55;;;;;;;19.33;14.35;;;16.00;99.90;;;;;;5116340;28;20028;-84
2023/05/11 05:27:21;;;;;;;16.95;12.50;;;16.00;99.90;;;;;;5115348;28;20063;-85
2023/05/11 05:29:46;;;;;;;15.07;11.88;;;16.00;99.90;;;;;;5063811;28;20028;-82
2023/05/11 05:32:12;;;;;;;17.52;12.73;;;16.00;99.90;;;;;;5063816;28;20031;-84
2023/05/11 05:34:38;;;;;;;19.52;13.77;;;16.00;99.90;;;;;;5115539;28;20028;-84
2023/05/11 05:37:03;;;;;;;19.55;14.38;;;16.10;99.90;;;;;;5097180;28;20501;-84
2023/05/11 05:39:29;;;;;;;13.77;11.00;;;16.10;99.90;;;;;;5097358;28;20456;-84
2023/05/11 05:41:55;;;;;;;18.02;12.68;;;16.10;99.90;;;;;;5096793;28;20049;-84
2023/05/11 05:44:21;;;;;;;22.83;16.23;;;16.10;99.90;;;;;;5080729;28;20032;-83
2023/05/11 05:46:46;;;;;;;29.73;18.50;;;16.10;99.90;;;;;;5114920;28;20106;-84
2023/05/11 05:49:12;;;;;;;22.02;16.75;;;15.90;99.90;;;;;;5116143;28;20115;-85
2023/05/11 05:51:38;;;;;;;26.58;17.48;;;15.80;99.90;;;;;;5081368;28;20039;-86
2023/05/11 05:54:03;;;;;;;17.73;13.73;;;15.60;99.90;;;;;;5097881;28;20027;-84
2023/05/11 05:56:30;;;;;;;18.92;14.75;;;15.50;99.90;;;;;;5097649;28;20028;-85
2023/05/11 05:58:56;;;;;;;24.77;17.90;;;15.60;99.90;;;;;;5082077;28;20031;-86
2023/05/11 06:01:22;;;;;;;20.95;15.23;;;15.60;99.90;;;;;;5097748;28;20122;-85
2023/05/11 06:03:50;;;;;;;18.65;13.80;;;15.60;99.90;;;;;;5096522;28;20645;-86
2023/05/11 06:06:16;;;;;;;20.63;15.40;;;15.60;99.90;;;;;;5114869;28;20076;-86
2023/05/11 06:08:42;;;;;;;23.27;16.10;;;15.60;99.90;;;;;;5096221;28;20063;-86
2023/05/11 06:11:08;;;;;;;20.33;15.98;;;15.60;99.90;;;;;;5096174;28;20031;-86
2023/05/11 06:13:34;;;;;;;14.75;11.98;;;15.50;99.90;;;;;;5079434;28;20089;-86
2023/05/11 06:16:00;;;;;;;18.30;14.30;;;15.60;99.90;;;;;;5096477;28;20035;-87
2023/05/11 06:18:26;;;;;;;18.58;14.13;;;15.60;99.90;;;;;;5062517;28;20028;-85
2023/05/11 06:20:52;;;;;;;18.00;13.55;;;15.50;99.90;;;;;;5079470;28;20038;-86
2023/05/11 06:23:17;;;;;;;18.23;13.68;;;15.40;99.90;;;;;;5096098;28;20064;-86
2023/05/11 06:25:43;;;;;;;18.10;13.13;;;15.40;99.90;;;;;;5095628;28;20051;-86
2023/05/11 06:28:09;;;;;;;23.20;13.15;;;15.40;99.90;;;;;;5096408;28;20031;-87
2023/05/11 06:30:35;;;;;;;19.98;13.98;;;15.40;99.90;;;;;;5096043;28;20023;-86
2023/05/11 06:33:00;;;;;;;22.65;13.85;;;15.40;99.90;;;;;;5079490;28;20032;-86
2023/05/11 06:35:26;;;;;;;16.45;11.82;;;15.50;99.90;;;;;;5114361;28;20028;-85
2023/05/11 06:37:52;;;;;;;16.60;11.77;;;15.50;99.90;;;;;;5095725;28;20036;-86
2023/05/11 06:40:17;;;;;;;17.52;12.15;;;15.70;99.90;;;;;;5096004;28;20399;-86
2023/05/11 06:42:43;;;;;;;16.08;11.18;;;15.80;99.90;;;;;;5095980;28;20035;-87
2023/05/11 06:45:09;;;;;;;18.35;12.57;;;15.80;99.90;;;;;;5062384;28;20019;-86
2023/05/11 06:47:35;;;;;;;19.30;13.60;;;15.90;99.90;;;;;;5095988;28;20101;-87
2023/05/11 06:50:01;;;;;;;18.42;13.68;;;15.90;99.90;;;;;;5113552;28;20027;-87
2023/05/11 06:52:27;;;;;;;20.30;13.60;;;16.00;99.90;;;;;;5113735;28;20373;-87
2023/05/11 06:54:52;;;;;;;18.05;12.95;;;16.10;99.90;;;;;;5062908;28;20177;-86
2023/05/11 06:57:18;;;;;;;18.40;13.02;;;16.10;99.90;;;;;;5062715;28;20437;-85
2023/05/11 06:59:43;;;;;;;20.92;15.20;;;16.10;99.90;;;;;;5112654;28;20024;-85
2023/05/11 07:02:09;;;;;;;22.80;15.13;;;16.20;99.90;;;;;;5096151;28;20047;-87
2023/05/11 07:04:36;;;;;;;20.10;13.75;;;16.10;99.90;;;;;;5078664;28;20076;-86
2023/05/11 07:07:02;;;;;;;22.48;15.20;;;16.10;99.90;;;;;;5113809;28;20220;-86
2023/05/11 07:09:28;;;;;;;18.17;13.02;;;16.10;99.90;;;;;;5112848;28;20030;-87
2023/05/11 07:11:53;;;;;;;26.75;17.00;;;16.20;99.90;;;;;;5095519;28;20417;-87
2023/05/11 07:14:19;;;;;;;23.10;15.88;;;16.20;99.90;;;;;;5096028;28;20027;-86
2023/05/11 07:16:45;;;;;;;19.67;15.23;;;16.30;99.90;;;;;;5079124;28;20275;-86
2023/05/11 07:19:11;;;;;;;27.35;19.17;;;16.30;99.90;;;;;;5117553;28;20020;-86
2023/05/11 07:21:37;;;;;;;25.33;18.30;;;16.40;99.90;;;;;;5099340;28;20027;-85
2023/05/11 07:24:02;;;;;;;24.77;17.33;;;16.40;99.90;;;;;;5099234;28;20475;-86
2023/05/11 07:26:28;;;;;;;27.42;19.40;;;16.40;99.90;;;;;;5078695;28;20144;-85
2023/05/11 07:28:54;;;;;;;28.35;19.08;;;16.40;99.90;;;;;;5079006;28;20078;-86
2023/05/11 07:31:20;;;;;;;24.65;18.13;;;16.30;99.90;;;;;;5062823;28;20392;-86
2023/05/11 07:33:46;;;;;;;24.70;17.63;;;16.30;99.90;;;;;;5096638;28;20462;-86
2023/05/11 07:36:12;;;;;;;21.75;15.82;;;16.40;99.90;;;;;;5064127;28;20035;-86
2023/05/11 07:38:37;;;;;;;24.48;17.02;;;16.50;99.90;;;;;;5082356;28;20448;-87
2023/05/11 07:41:03;;;;;;;25.73;18.23;;;16.60;99.90;;;;;;5066466;28;20035;-86
2023/05/11 07:43:29;;;;;;;31.67;19.63;;;16.50;99.90;;;;;;5096614;28;20103;-87
2023/05/11 07:45:55;;;;;;;27.08;19.98;;;16.50;99.90;;;;;;5062641;28;20384;-83
2023/05/11 07:48:21;;;;;;;29.95;21.92;;;16.50;99.90;;;;;;5078247;28;20477;-86
2023/05/11 07:50:48;;;;;;;28.42;22.20;;;16.50;99.90;;;;;;5083230;28;20031;-85
2023/05/11 07:53:14;;;;;;;27.05;21.08;;;16.50;99.90;;;;;;5071963;28;20089;-84
2023/05/11 07:55:40;;;;;;;29.67;22.20;;;16.60;99.90;;;;;;5081642;28;20032;-85
2023/05/11 07:58:05;;;;;;;32.90;23.00;;;16.60;99.90;;;;;;5078487;28;20028;-85
2023/05/11 08:00:32;;;;;;;33.42;23.92;;;16.50;99.90;;;;;;5061870;28;20062;-86
2023/05/11 08:02:57;;;;;;;30.13;21.98;;;16.50;99.90;;;;;;5078784;28;20556;-85
2023/05/11 08:05:23;;;;;;;35.00;25.65;;;16.60;99.90;;;;;;5044830;28;20122;-84
2023/05/11 08:07:49;;;;;;;37.15;26.98;;;16.50;99.90;;;;;;5061391;28;20469;-85
2023/05/11 08:10:14;;;;;;;34.42;25.95;;;16.50;99.90;;;;;;5095848;28;20059;-86
2023/05/11 08:12:40;;;;;;;38.75;27.75;;;16.60;99.90;;;;;;5096137;28;20028;-85
2023/05/11 08:15:06;;;;;;;37.00;26.75;;;16.50;99.90;;;;;;5095748;28;20024;-84
2023/05/11 08:17:32;;;;;;;35.15;26.13;;;16.60;99.90;;;;;;5077004;28;20031;-85
2023/05/11 08:19:58;;;;;;;34.05;25.63;;;16.70;99.90;;;;;;5061263;28;20028;-85
2023/05/11 08:22:24;;;;;;;35.85;26.45;;;16.90;99.90;;;;;;5078258;28;20083;-85
2023/05/11 08:24:50;;;;;;;31.77;24.25;;;17.10;99.90;;;;;;5079251;28;20131;-85
2023/05/11 08:27:16;;;;;;;26.63;21.60;;;17.20;99.90;;;;;;5081252;28;20047;-86
2023/05/11 08:29:41;;;;;;;32.28;23.48;;;17.30;99.90;;;;;;5117101;28;20046;-86
2023/05/11 08:32:10;;;;;;;30.67;24.08;;;17.30;99.90;;;;;;5082284;28;20031;-87
2023/05/11 08:34:38;;;;;;;30.63;24.33;;;17.30;99.90;;;;;;5099958;28;20035;-87
2023/05/11 08:37:04;;;;;;;34.83;26.55;;;17.30;99.90;;;;;;5099677;28;20212;-87
2023/05/11 08:39:32;;;;;;;29.10;23.27;;;17.30;99.90;;;;;;5099729;28;20534;-85
2023/05/11 08:42:00;;;;;;;33.42;25.90;;;17.30;99.90;;;;;;5117979;28;20114;-85
2023/05/11 08:44:26;;;;;;;28.67;23.98;;;17.30;99.90;;;;;;5118178;28;20027;-86
2023/05/11 08:46:53;;;;;;;30.85;25.08;;;17.40;99.90;;;;;;5120181;28;20064;-85
2023/05/11 08:49:19;;;;;;;29.33;24.63;;;17.40;99.90;;;;;;5121341;28;20023;-86
2023/05/11 08:51:46;;;;;;;31.48;24.75;;;17.50;99.90;;;;;;5121652;28;20468;-84
2023/05/11 08:54:11;;;;;;;29.58;24.50;;;17.60;99.90;;;;;;5089622;28;20051;-84
2023/05/11 08:56:40;;;;;;;33.72;26.33;;;17.50;99.90;;;;;;5117690;28;20028;-84
2023/05/11 08:59:07;;;;;;;24.33;20.23;;;17.60;99.90;;;;;;5115268;28;20045;-84
2023/05/11 09:01:36;;;;;;;29.13;23.27;;;17.80;99.90;;;;;;5081404;28;20120;-85
2023/05/11 09:04:03;;;;;;;30.25;24.02;;;17.90;99.90;;;;;;5117204;28;20022;-85
2023/05/11 09:06:33;;;;;;;32.80;25.27;;;17.90;99.90;;;;;;5099048;28;20106;-86
2023/05/11 09:09:00;;;;;;;32.03;24.58;;;17.80;99.90;;;;;;5114899;28;20127;-86
2023/05/11 09:11:27;;;;;;;28.13;21.27;;;17.70;99.90;;;;;;5116326;28;20023;-87
2023/05/11 09:13:53;;;;;;;31.02;21.40;;;17.70;99.90;;;;;;5115684;28;20055;-86
2023/05/11 09:16:19;;;;;;;25.38;19.85;;;17.90;99.90;;;;;;5115909;28;20102;-86
2023/05/11 09:18:52;;;;;;;25.42;20.75;;;18.00;99.90;;;;;;5081074;28;20047;-86
2023/05/11 09:21:18;;;;;;;26.65;21.05;;;18.10;99.90;;;;;;5082182;28;20055;-81
2023/05/11 09:23:44;;;;;;;23.48;19.17;;;18.20;99.90;;;;;;5118332;28;20045;-84
2023/05/11 09:26:18;;;;;;;22.15;17.67;;;18.30;99.90;;;;;;5120314;28;20099;-84
2023/05/11 09:28:52;;;;;;;22.67;17.98;;;18.50;99.90;;;;;;5122151;28;20028;-84
2023/05/11 09:31:38;;;;;;;27.83;21.40;;;18.60;99.90;;;;;;5115092;28;20059;-85
2023/05/11 09:34:09;;;;;;;26.80;19.65;;;18.50;99.90;;;;;;5102697;28;20034;-85
2023/05/11 09:36:35;;;;;;;27.27;20.35;;;18.40;99.90;;;;;;5124545;28;20031;-85
2023/05/11 09:39:02;;;;;;;28.55;21.50;;;18.40;99.90;;;;;;5098946;28;20114;-85
2023/05/11 09:41:28;;;;;;;23.40;18.27;;;18.30;99.90;;;;;;5115245;28;20089;-85
2023/05/11 09:44:10;;;;;;;21.77;17.88;;;18.30;99.90;;;;;;5097133;28;20058;-85
2023/05/11 09:46:44;;;;;;;28.25;21.55;;;18.30;99.90;;;;;;5097051;28;20028;-85
2023/05/11 09:49:10;;;;;;;25.27;20.15;;;18.30;99.90;;;;;;5113848;28;20028;-85
2023/05/11 09:51:39;;;;;;;26.35;20.15;;;18.20;99.90;;;;;;5113424;28;20035;-86
2023/05/11 09:54:19;;;;;;;26.58;20.77;;;18.20;99.90;;;;;;5080319;28;20086;-86
2023/05/11 09:56:50;;;;;;;24.23;18.88;;;18.10;99.90;;;;;;5114798;28;20069;-85
2023/05/11 09:59:35;;;;;;;23.60;18.35;;;18.00;99.90;;;;;;5097256;28;20065;-75
2023/05/11 10:02:20;;;;;;;23.67;18.80;;;17.90;99.90;;;;;;5114972;28;20537;-85
2023/05/11 10:04:47;;;;;;;23.38;18.80;;;17.90;99.90;;;;;;5114493;28;20034;-85
2023/05/11 10:07:33;;;;;;;25.08;19.25;;;18.00;99.90;;;;;;5114582;28;20078;-87
2023/05/11 10:10:01;;;;;;;13.20;11.45;;;17.80;99.90;;;;;;5114126;28;20125;-85
2023/05/11 10:12:27;;;;;;;32.50;25.20;;;17.80;99.90;;;;;;5114578;28;20028;-85
2023/05/11 10:15:14;;;;;;;40.88;26.38;;;17.80;99.90;;;;;;5096676;28;20036;-80
2023/05/11 10:17:43;;;;;;;32.90;24.65;;;17.70;99.90;;;;;;5114517;28;20047;-85
2023/05/11 10:20:10;;;;;;;35.13;25.17;;;17.50;99.90;;;;;;5114786;28;20026;-86
2023/05/11 10:22:36;;;;;;;33.13;24.27;;;17.40;99.90;;;;;;5096735;28;20043;-85
2023/05/11 10:25:04;;;;;;;30.30;24.13;;;17.50;99.90;;;;;;5113969;28;20156;-87
2023/05/11 10:27:30;;;;;;;26.08;20.10;;;17.50;99.90;;;;;;5096835;28;20040;-86
2023/05/11 10:29:58;;;;;;;29.40;22.40;;;17.50;99.90;;;;;;5079870;28;20027;-86
2023/05/11 10:32:24;;;;;;;30.02;22.38;;;17.60;99.90;;;;;;5114880;28;20023;-85
2023/05/11 10:34:50;;;;;;;27.98;22.02;;;17.60;99.90;;;;;;5097098;28;20392;-87
2023/05/11 10:37:16;;;;;;;28.77;21.67;;;17.50;99.90;;;;;;5097513;28;20036;-87
2023/05/11 10:39:43;;;;;;;29.35;22.38;;;17.50;99.90;;;;;;5096408;28;20127;-87
2023/05/11 10:42:27;;;;;;;29.88;22.55;;;17.40;99.90;;;;;;5114743;28;20055;-86
2023/05/11 10:45:03;;;;;;;21.45;17.45;;;17.50;99.90;;;;;;5113535;28;20028;-87
2023/05/11 10:47:31;;;;;;;28.25;21.10;;;17.50;99.90;;;;;;5113861;28;20063;-81
2023/05/11 10:50:15;;;;;;;23.88;18.25;;;17.60;99.90;;;;;;5114798;28;20051;-86
2023/05/11 10:53:22;;;;;;;24.73;19.52;;;17.60;99.90;;;;;;5118199;28;20019;-87
2023/05/11 10:56:12;;;;;;;22.25;18.20;;;17.70;99.90;;;;;;5118537;28;20024;-86
2023/05/11 10:58:52;;;;;;;22.20;16.92;;;17.80;99.90;;;;;;5118196;28;20026;-87
2023/05/11 11:01:38;;;;;;;22.00;16.92;;;17.90;99.90;;;;;;5117698;28;20035;-85
2023/05/11 11:04:06;;;;;;;29.00;22.08;;;17.80;99.90;;;;;;5100394;28;20027;-87
2023/05/11 11:06:34;;;;;;;27.90;22.63;;;17.80;99.90;;;;;;5118374;28;20028;-87
2023/05/11 11:09:14;;;;;;;28.95;23.58;;;17.70;99.90;;;;;;5117853;28;20469;-87
2023/05/11 11:11:45;;;;;;;27.58;21.48;;;17.70;99.90;;;;;;5116656;28;20067;-87
2023/05/11 11:14:13;;;;;;;31.02;24.58;;;17.70;99.90;;;;;;5116680;28;20031;-86
2023/05/11 11:16:40;;;;;;;31.98;24.77;;;17.60;99.90;;;;;;5099937;28;20023;-86
2023/05/11 11:19:31;;;;;;;30.88;24.45;;;17.60;99.90;;;;;;5117562;28;20531;-86
2023/05/11 11:22:00;;;;;;;36.25;27.00;;;17.40;99.90;;;;;;5118500;28;20034;-87
2023/05/11 11:24:38;;;;;;;32.55;26.50;;;17.40;99.90;;;;;;5101165;28;20032;-87
2023/05/11 11:27:08;;;;;;;32.10;25.98;;;17.30;99.90;;;;;;5118183;28;20047;-87
2023/05/11 11:29:35;;;;;;;31.27;24.63;;;17.20;99.90;;;;;;5116593;28;20031;-86
2023/05/11 11:32:22;;;;;;;35.28;26.83;;;17.20;99.90;;;;;;5098988;28;20032;-87
2023/05/11 11:34:49;;;;;;;28.25;23.40;;;17.10;99.90;;;;;;5117296;28;20032;-85
2023/05/11 11:37:16;;;;;;;28.70;21.98;;;17.00;99.90;;;;;;5117209;28;20023;-85
2023/05/11 11:39:41;;;;;;;24.67;19.83;;;16.90;99.90;;;;;;5116374;28;20027;-84
2023/05/11 11:42:31;;;;;;;26.13;20.00;;;16.90;99.90;;;;;;5117125;28;20075;-87
2023/05/11 11:45:24;;;;;;;25.42;19.45;;;16.80;99.90;;;;;;5117969;28;20030;-86
2023/05/11 11:48:11;;;;;;;23.05;19.02;;;16.70;99.90;;;;;;5116610;28;20024;-86
2023/05/11 11:50:40;;;;;;;25.48;19.67;;;16.70;99.90;;;;;;5116988;28;20031;-85
2023/05/11 11:53:09;;;;;;;26.67;20.05;;;16.70;99.90;;;;;;5115526;28;20028;-85
2023/05/11 11:55:48;;;;;;;29.30;20.85;;;16.70;99.90;;;;;;5081688;28;20042;-85
2023/05/11 11:58:39;;;;;;;25.10;19.02;;;16.70;99.90;;;;;;5117374;28;20024;-84
2023/05/11 12:01:16;;;;;;;23.80;19.13;;;16.80;99.90;;;;;;5115666;28;20023;-85
2023/05/11 12:03:43;;;;;;;24.30;18.40;;;16.80;99.90;;;;;;5115510;28;20023;-85
2023/05/11 12:06:09;;;;;;;28.10;20.92;;;16.80;99.90;;;;;;5116769;28;20030;-86
2023/05/11 12:08:37;;;;;;;29.75;22.42;;;16.80;99.90;;;;;;5115564;28;20035;-84
2023/05/11 12:11:03;;;;;;;28.85;22.52;;;16.70;99.90;;;;;;5116268;28;20069;-85
2023/05/11 12:13:30;;;;;;;28.52;21.60;;;16.80;99.90;;;;;;5116595;28;20043;-85
2023/05/11 12:16:17;;;;;;;32.38;22.98;;;16.70;99.90;;;;;;5081318;28;20032;-83
2023/05/11 12:18:58;;;;;;;30.23;22.38;;;16.80;99.90;;;;;;5081317;28;20119;-85
2023/05/11 12:21:30;;;;;;;29.65;21.50;;;16.80;99.90;;;;;;5117645;28;20027;-84
2023/05/11 12:24:03;;;;;;;29.65;21.80;;;16.80;99.90;;;;;;5118195;28;20056;-85
2023/05/11 12:26:31;;;;;;;31.88;22.13;;;16.80;99.90;;;;;;5117322;28;20043;-86
2023/05/11 12:29:11;;;;;;;25.33;20.17;;;16.80;99.90;;;;;;5117470;28;20391;-85
2023/05/11 12:31:46;;;;;;;28.00;22.00;;;16.80;99.90;;;;;;5116578;28;20042;-85
2023/05/11 12:34:21;;;;;;;24.70;19.88;;;16.80;99.90;;;;;;5115591;28;20031;-85
2023/05/11 12:36:52;;;;;;;27.15;21.45;;;16.80;99.90;;;;;;5116762;28;20016;-85